Time;durP1;ratioP1;P1;durP2;ratioP2;P2;SDS_P1;SDS_P2;PMS_P1;PMS_P2;Temp;Humidity;BMP_temperature;BMP_pressure;BME280_temperature;BME280_humidity;BME280_pressure;Samples;Min_cycle;Max_cycle;Signal;HPM_P1;HPM_P2
2021/12/04 00:09:12;;;;;;;28.50;13.47;;;;;;;5.54;91.18;99946.25;31306434;28;20098;-75
2021/12/04 00:24:14;;;;;;;15.30;7.93;;;;;;;5.18;91.35;99972.47;31307669;28;20048;-74
2021/12/04 00:54:37;;;;;;;9.30;4.03;;;;;;;4.88;92.69;99978.97;31395822;28;20068;-75
2021/12/04 01:09:39;;;;;;;6.10;3.13;;;;;;;4.57;92.11;99998.47;31279573;28;20068;-75
2021/12/04 01:24:41;;;;;;;3.53;2.30;;;;;;;4.26;91.54;100000.66;31286503;28;20094;-75
2021/12/04 01:39:43;;;;;;;3.33;2.70;;;;;;;4.17;91.54;100013.69;31318328;28;20064;-75
2021/12/04 01:54:46;;;;;;;4.13;2.40;;;;;;;4.19;92.09;100032.13;31335281;28;20056;-74
2021/12/04 02:09:48;;;;;;;3.70;2.87;;;;;;;4.14;91.88;100056.66;31327839;28;20045;-75
2021/12/04 02:24:49;;;;;;;4.87;2.90;;;;;;;4.14;92.90;100078.16;31308919;28;20041;-74
2021/12/04 02:39:58;;;;;;;4.70;2.70;;;;;;;4.06;93.24;100104.19;31319662;28;20462;-75
2021/12/04 02:55:02;;;;;;;5.53;3.40;;;;;;;3.85;95.36;100102.13;31311988;28;20049;-73
2021/12/04 03:10:07;;;;;;;7.50;4.37;;;;;;;3.56;94.77;100098.44;31314337;28;20510;-75
2021/12/04 03:25:09;;;;;;;10.67;5.00;;;;;;;3.41;95.81;100166.56;31308035;28;20045;-74
2021/12/04 03:55:25;;;;;;;9.83;4.80;;;;;;;3.43;94.24;100169.66;31296022;28;20056;-75
2021/12/04 04:10:27;;;;;;;9.87;5.43;;;;;;;3.31;94.80;100159.16;31310319;28;20055;-75
2021/12/04 04:25:29;;;;;;;11.23;5.20;;;;;;;3.38;95.02;100199.50;31333147;28;20070;-75
2021/12/04 04:57:28;;;;;;;7.73;4.73;;;;;;;3.30;94.58;100203.25;31325152;28;20055;-75
2021/12/04 05:11:35;;;;;;;8.07;4.50;;;;;;;3.01;96.59;100216.31;31326813;28;20144;-74
2021/12/04 05:26:37;;;;;;;9.47;4.47;;;;;;;3.00;98.04;100230.88;31336148;28;20415;-74
2021/12/04 05:41:39;;;;;;;9.53;5.27;;;;;;;2.98;98.24;100246.53;31308703;28;20136;-75
2021/12/04 05:56:41;;;;;;;9.97;5.77;;;;;;;2.90;99.74;100270.94;31309282;28;20076;-75
2021/12/04 06:11:43;;;;;;;12.70;6.93;;;;;;;2.91;99.95;100283.22;31303923;28;20057;-74
2021/12/04 06:26:45;;;;;;;12.20;5.90;;;;;;;3.07;99.67;100324.81;31309458;28;20063;-74
2021/12/04 06:41:48;;;;;;;12.63;7.00;;;;;;;3.14;99.59;100344.84;31340877;28;20041;-73
2021/12/04 06:56:50;;;;;;;12.57;6.73;;;;;;;3.23;100.00;100342.66;31339548;28;20055;-74
2021/12/04 07:11:55;;;;;;;14.43;7.47;;;;;;;3.26;100.00;100315.13;31319479;28;20140;-74
2021/12/04 07:26:57;;;;;;;17.50;7.80;;;;;;;3.02;99.75;100310.97;31296406;28;20517;-75
2021/12/04 07:41:59;;;;;;;17.00;8.37;;;;;;;2.75;100.00;100337.00;31326515;28;20048;-74
2021/12/04 07:57:03;;;;;;;23.33;10.33;;;;;;;2.73;100.00;100325.84;31328990;28;20417;-72
2021/12/04 08:12:05;;;;;;;20.23;10.57;;;;;;;2.59;100.00;100296.16;31324375;28;20453;-73
2021/12/04 08:27:09;;;;;;;19.70;9.43;;;;;;;2.56;100.00;100268.16;31303151;28;20103;-74
2021/12/04 08:42:11;;;;;;;10.67;5.73;;;;;;;2.74;100.00;100241.63;31277890;28;20372;-73
2021/12/04 08:57:14;;;;;;;8.50;4.77;;;;;;;2.94;100.00;100218.13;31314894;28;20055;-74
2021/12/04 09:12:16;;;;;;;13.10;7.23;;;;;;;2.96;100.00;100200.53;31302665;28;20053;-74
2021/12/04 10:44:18;;;;;;;8.80;5.07;;;;;;;3.43;100.00;100122.13;31305720;28;20087;-74
2021/12/04 10:59:35;;;;;;;10.37;5.50;;;;;;;3.31;100.00;100129.63;31338020;28;20418;-75
2021/12/04 11:45:46;;;;;;;13.97;6.87;;;;;;;3.45;100.00;100113.69;31320927;28;20077;-74
2021/12/04 12:00:55;;;;;;;10.93;6.43;;;;;;;3.60;98.84;100111.91;31305849;28;20080;-75
2021/12/04 12:16:00;;;;;;;11.80;6.57;;;;;;;3.68;99.52;100116.97;31366520;28;20098;-74
2021/12/04 12:46:53;;;;;;;17.60;7.50;;;;;;;3.59;97.75;100113.03;31294957;28;20144;-75
2021/12/04 13:17:28;;;;;;;15.70;8.03;;;;;;;3.41;100.00;100107.50;31312047;28;20081;-73
2021/12/04 13:32:34;;;;;;;16.23;8.40;;;;;;;3.40;100.00;100089.88;31323366;28;20107;-75
2021/12/04 13:47:36;;;;;;;19.90;9.20;;;;;;;3.01;100.00;100089.50;31369261;28;20059;-74
2021/12/04 14:02:38;;;;;;;23.07;10.03;;;;;;;2.90;100.00;100100.09;31341692;28;20693;-76
2021/12/04 14:17:42;;;;;;;29.43;13.70;;;;;;;2.63;100.00;100098.63;31317420;28;20683;-75
2021/12/04 14:32:50;;;;;;;28.03;11.27;;;;;;;2.68;100.00;100104.44;31347850;28;20083;-75
2021/12/04 14:48:28;;;;;;;27.40;11.07;;;;;;;2.47;100.00;100098.81;31302527;28;20049;-76
2021/12/04 15:03:38;;;;;;;18.17;10.07;;;;;;;2.42;100.00;100087.63;31348092;28;20051;-77
2021/12/04 15:18:41;;;;;;;17.13;9.03;;;;;;;2.30;100.00;100078.69;31348511;28;20085;-75
2021/12/04 15:34:06;;;;;;;16.20;8.20;;;;;;;2.29;100.00;100071.03;31340518;28;20061;-74
2021/12/04 16:04:32;;;;;;;12.57;5.73;;;;;;;2.02;100.00;100083.66;31324306;28;20049;-77
2021/12/04 16:19:36;;;;;;;15.43;7.70;;;;;;;2.18;100.00;100080.81;31332381;28;20041;-74
2021/12/04 16:50:04;;;;;;;16.03;8.57;;;;;;;1.95;100.00;100057.53;31333914;28;20063;-76
2021/12/04 17:05:07;;;;;;;10.07;6.00;;;;;;;1.75;100.00;100042.72;31375349;28;20053;-80
2021/12/04 17:20:13;;;;;;;7.87;4.83;;;;;;;1.94;100.00;100060.59;31391667;28;20052;-80
2021/12/04 17:35:16;;;;;;;9.70;5.83;;;;;;;1.89;100.00;100032.22;31396372;28;20056;-79
2021/12/04 17:50:25;;;;;;;9.57;4.83;;;;;;;1.83;100.00;100038.25;31326948;28;20491;-77
2021/12/04 18:05:28;;;;;;;10.77;4.77;;;;;;;1.90;100.00;100032.97;31330107;28;20140;-76
2021/12/04 18:20:30;;;;;;;8.00;5.13;;;;;;;1.96;100.00;100031.53;31367757;28;20048;-77
2021/12/04 18:35:34;;;;;;;9.13;5.87;;;;;;;2.00;100.00;100029.69;31349657;28;20057;-77
2021/12/04 18:50:39;;;;;;;10.07;6.43;;;;;;;1.97;100.00;99995.59;31310290;28;20059;-78
2021/12/04 19:05:46;;;;;;;10.37;6.77;;;;;;;1.83;100.00;99980.13;31322800;28;20051;-78
2021/12/04 19:20:51;;;;;;;10.23;6.00;;;;;;;1.78;100.00;99959.03;31373966;28;20103;-76
2021/12/04 19:51:14;;;;;;;11.80;5.50;;;;;;;1.96;100.00;99935.94;31345884;28;20056;-76
2021/12/04 20:21:58;;;;;;;11.13;6.43;;;;;;;2.00;100.00;99952.06;31291113;28;20120;-78
2021/12/04 21:53:17;;;;;;;25.33;11.50;;;;;;;2.15;100.00;99940.38;31327344;28;20164;-77
